Time;durP1;ratioP1;P1;durP2;ratioP2;P2;SDS_P1;SDS_P2;PMS_P1;PMS_P2;Temp;Humidity;BMP_temperature;BMP_pressure;BME280_temperature;BME280_humidity;BME280_pressure;Samples;Min_cycle;Max_cycle;Signal;HPM_P1;HPM_P2
2022/06/19 00:00:01;;;;;;;;;;;;;;;24.85;48.37;95599.50;2060168;28;1169;-60
2022/06/19 00:01:04;;;;;;;;;;;;;;;24.85;48.62;95598.69;2065519;28;1108;-60
2022/06/19 00:02:06;;;;;;;;;;;;;;;24.86;48.32;95605.69;2064579;28;1978;-61
2022/06/19 00:03:12;;;;;;;;;;;;;;;24.82;48.46;95620.59;2065196;28;1092;-60
2022/06/19 00:04:15;;;;;;;;;;;;;;;24.83;48.42;95611.50;2065449;28;1089;-59
2022/06/19 00:05:18;;;;;;;;;;;;;;;24.84;48.43;95599.72;2064806;28;1097;-55
2022/06/19 00:06:22;;;;;;;;;;;;;;;24.87;48.42;95604.63;2065380;28;1172;-62
2022/06/19 00:07:25;;;;;;;;;;;;;;;24.89;48.43;95599.84;2064574;28;1555;-54
2022/06/19 00:08:27;;;;;;;;;;;;;;;24.88;48.46;95606.28;2056849;28;1239;-61
2022/06/19 00:09:30;;;;;;;;;;;;;;;24.91;47.96;95600.47;2065053;28;1164;-61
2022/06/19 00:10:32;;;;;;;;;;;;;;;24.93;48.14;95598.38;2059667;28;1971;-61
2022/06/19 00:11:36;;;;;;;;;;;;;;;24.93;48.21;95593.81;2061055;28;1074;-61
2022/06/19 00:12:38;;;;;;;;;;;;;;;24.85;47.67;95598.69;2064361;28;1031;-60
2022/06/19 00:13:41;;;;;;;;;;;;;;;24.68;48.98;95593.88;2065370;28;1121;-60
2022/06/19 00:14:43;;;;;;;;;;;;;;;24.57;49.35;95603.47;2065268;28;1989;-61
2022/06/19 00:15:46;;;;;;;;;;;;;;;24.48;49.29;95598.63;2064757;28;1409;-61
2022/06/19 00:16:47;;;;;;;;;;;;;;;24.43;49.80;95595.78;2065524;28;974;-61
2022/06/19 00:17:50;;;;;;;;;;;;;;;24.45;49.08;95596.38;2064729;28;1228;-50
2022/06/19 00:18:52;;;;;;;;;;;;;;;24.53;49.23;95596.09;2060413;28;1116;-60
2022/06/19 00:19:55;;;;;;;;;;;;;;;24.59;48.87;95600.59;2064933;28;1061;-57
2022/06/19 00:20:57;;;;;;;;;;;;;;;24.54;49.28;95595.06;2065268;28;1098;-63
2022/06/19 00:22:01;;;;;;;;;;;;;;;24.61;48.75;95589.59;2053949;28;1578;-54
2022/06/19 00:23:03;;;;;;;;;;;;;;;24.68;48.70;95601.94;2063882;28;1093;-63
2022/06/19 00:24:06;;;;;;;;;;;;;;;24.75;48.44;95588.41;2065388;28;1068;-61
2022/06/19 00:25:08;;;;;;;;;;;;;;;24.82;48.77;95589.16;2065244;28;1021;-63
2022/06/19 00:26:11;;;;;;;;;;;;;;;24.86;48.54;95593.06;2057604;28;1889;-61
2022/06/19 00:27:13;;;;;;;;;;;;;;;24.89;48.39;95597.16;2057384;28;1017;-62
2022/06/19 00:28:16;;;;;;;;;;;;;;;24.92;48.43;95604.78;2055728;28;1313;-54
2022/06/19 00:29:18;;;;;;;;;;;;;;;24.81;48.75;95592.88;2064265;28;1134;-58
2022/06/19 00:30:20;;;;;;;;;;;;;;;24.68;49.83;95596.56;2066705;28;1087;-60
2022/06/19 00:31:22;;;;;;;;;;;;;;;24.56;50.11;95603.72;2066888;28;1113;-61
2022/06/19 00:32:27;;;;;;;;;;;;;;;24.47;50.43;95600.50;2066573;28;1097;-57
2022/06/19 00:33:29;;;;;;;;;;;;;;;24.40;50.90;95597.03;2057851;28;1009;-61
2022/06/19 00:34:32;;;;;;;;;;;;;;;24.37;50.99;95596.69;2065956;28;1974;-53
2022/06/19 00:35:33;;;;;;;;;;;;;;;24.32;51.16;95603.50;2066262;28;1170;-60
2022/06/19 00:36:36;;;;;;;;;;;;;;;24.29;51.23;95595.09;2063723;28;1495;-59
2022/06/19 00:37:39;;;;;;;;;;;;;;;24.25;51.58;95600.09;2058890;28;1110;-59
2022/06/19 00:38:42;;;;;;;;;;;;;;;24.24;51.17;95595.72;2059977;28;1562;-55
2022/06/19 00:39:44;;;;;;;;;;;;;;;24.24;51.36;95609.16;2066606;28;1081;-60
2022/06/19 00:40:47;;;;;;;;;;;;;;;24.22;51.59;95600.53;2066583;28;1144;-66
2022/06/19 00:41:49;;;;;;;;;;;;;;;24.21;51.50;95598.88;2066837;28;1113;-58
2022/06/19 00:42:51;;;;;;;;;;;;;;;24.20;51.58;95599.91;2065815;28;1063;-59
2022/06/19 00:43:57;;;;;;;;;;;;;;;24.20;51.62;95589.19;2066870;28;1156;-58
2022/06/19 00:45:01;;;;;;;;;;;;;;;24.21;51.17;95587.31;2057971;28;1566;-61
2022/06/19 00:46:23;;;;;;;;;;;;;;;24.19;51.58;95592.91;2066697;28;1164;-71
2022/06/19 00:47:26;;;;;;;;;;;;;;;24.20;51.40;95599.91;2066424;28;1243;-63
2022/06/19 00:48:31;;;;;;;;;;;;;;;24.18;51.36;95583.19;2061266;28;1182;-63
2022/06/19 00:49:34;;;;;;;;;;;;;;;24.18;51.61;95593.94;2066062;28;1093;-62
2022/06/19 00:50:36;;;;;;;;;;;;;;;24.18;51.66;95593.94;2064520;28;1510;-61
2022/06/19 00:51:39;;;;;;;;;;;;;;;24.18;51.60;95593.94;2066910;28;1427;-62
2022/06/19 00:52:43;;;;;;;;;;;;;;;24.18;51.63;95598.50;2066431;28;1089;-64
2022/06/19 00:53:47;;;;;;;;;;;;;;;24.17;51.78;95603.03;2066547;28;1144;-63
2022/06/19 00:54:51;;;;;;;;;;;;;;;24.18;51.67;95593.94;2066809;28;1078;-63
2022/06/19 00:55:56;;;;;;;;;;;;;;;24.26;51.49;95601.72;2062498;28;1153;-66
2022/06/19 00:56:59;;;;;;;;;;;;;;;24.30;51.34;95602.94;2062699;28;1062;-66
2022/06/19 00:58:04;;;;;;;;;;;;;;;24.35;51.25;95604.94;2066991;28;1176;-69
2022/06/19 00:59:07;;;;;;;;;;;;;;;24.37;50.80;95599.34;2065520;28;1587;-66
2022/06/19 01:00:10;;;;;;;;;;;;;;;24.42;50.98;95602.22;2066937;28;1116;-68
2022/06/19 01:01:15;;;;;;;;;;;;;;;24.43;50.78;95603.84;2067096;28;1073;-69
2022/06/19 01:02:17;;;;;;;;;;;;;;;24.44;50.94;95598.22;2066666;28;1108;-68
2022/06/19 01:03:23;;;;;;;;;;;;;;;24.47;50.62;95600.50;2067198;28;1044;-68
2022/06/19 01:04:27;;;;;;;;;;;;;;;24.48;50.81;95602.13;2066874;28;1179;-68
2022/06/19 01:05:30;;;;;;;;;;;;;;;24.50;51.03;95607.25;2066431;28;1910;-68
2022/06/19 01:06:32;;;;;;;;;;;;;;;24.50;50.89;95596.53;2065394;28;1547;-69
2022/06/19 01:07:35;;;;;;;;;;;;;;;24.51;50.67;95603.56;2058647;28;1106;-69
2022/06/19 01:08:39;;;;;;;;;;;;;;;24.51;50.83;95606.25;2066877;28;1127;-59
2022/06/19 01:09:41;;;;;;;;;;;;;;;24.52;50.98;95599.81;2066813;28;1072;-67
2022/06/19 01:10:45;;;;;;;;;;;;;;;24.51;50.73;95599.00;2067030;28;1105;-68
2022/06/19 01:11:48;;;;;;;;;;;;;;;24.51;50.87;95592.81;2066810;28;1941;-68
2022/06/19 01:12:50;;;;;;;;;;;;;;;24.50;50.93;95594.69;2066235;28;2058;-69
2022/06/19 01:13:53;;;;;;;;;;;;;;;24.51;51.01;95601.69;2059337;28;1627;-68
2022/06/19 01:14:59;;;;;;;;;;;;;;;24.53;51.16;95593.41;2063268;28;2001;-69
2022/06/19 01:16:04;;;;;;;;;;;;;;;24.53;50.86;95598.78;2066986;28;1965;-68
2022/06/19 01:17:07;;;;;;;;;;;;;;;24.52;50.97;95592.56;2066494;28;1168;-69
2022/06/19 01:18:11;;;;;;;;;;;;;;;24.53;50.70;95601.47;2063556;28;1159;-59
2022/06/19 01:19:20;;;;;;;;;;;;;;;24.53;50.87;95596.91;2061841;28;1253;-68
2022/06/19 01:20:23;;;;;;;;;;;;;;;24.53;51.04;95601.47;2066918;28;1044;-69
2022/06/19 01:21:28;;;;;;;;;;;;;;;24.53;50.87;95596.91;2067023;28;1168;-69
2022/06/19 01:22:36;;;;;;;;;;;;;;;24.52;50.67;95597.94;2066171;28;1717;-69
2022/06/19 01:23:41;;;;;;;;;;;;;;;24.53;50.98;95596.09;2067118;28;1085;-64
2022/06/19 01:25:07;;;;;;;;;;;;;;;24.52;50.96;95597.94;2066700;28;1006;-69
2022/06/19 01:26:10;;;;;;;;;;;;;;;24.54;50.93;95592.38;2060192;28;1952;-69
2022/06/19 01:28:45;;;;;;;;;;;;;;;24.54;51.10;95597.72;2066989;28;1077;-69
2022/06/19 01:30:03;;;;;;;;;;;;;;;24.54;50.92;95587.00;2051809;28;1947;-69
2022/06/19 01:31:07;;;;;;;;;;;;;;;24.53;50.92;95590.72;2063427;28;1121;-69
2022/06/19 01:32:09;;;;;;;;;;;;;;;24.53;51.09;95596.91;2066423;28;1144;-69
2022/06/19 01:33:14;;;;;;;;;;;;;;;24.54;50.82;95595.06;2066571;28;1989;-70
2022/06/19 01:34:28;;;;;;;;;;;;;;;24.54;50.81;95597.72;2066718;28;1121;-70
2022/06/19 01:35:33;;;;;;;;;;;;;;;24.53;50.97;95588.88;2066631;28;1910;-70
2022/06/19 01:36:37;;;;;;;;;;;;;;;24.54;50.78;95592.38;2065383;28;1601;-66
2022/06/19 01:37:40;;;;;;;;;;;;;;;24.48;51.00;95594.06;2066916;28;1141;-60
2022/06/19 01:38:46;;;;;;;;;;;;;;;24.43;51.41;95585.03;2066669;28;1295;-59
2022/06/19 01:39:49;;;;;;;;;;;;;;;24.39;51.57;95590.03;2066299;28;1021;-59
2022/06/19 01:40:55;;;;;;;;;;;;;;;24.35;51.65;95586.94;2062993;28;1927;-56
2022/06/19 01:41:58;;;;;;;;;;;;;;;24.32;51.53;95584.72;2061966;28;1185;-66
2022/06/19 01:43:00;;;;;;;;;;;;;;;24.31;52.01;95587.63;2066613;28;1101;-60
2022/06/19 01:44:03;;;;;;;;;;;;;;;24.28;51.97;95588.91;2066782;28;1056;-60
2022/06/19 01:45:05;;;;;;;;;;;;;;;24.28;51.84;95598.81;2066157;28;1459;-60
2022/06/19 01:46:09;;;;;;;;;;;;;;;24.27;51.96;95591.78;2066780;28;1044;-60
2022/06/19 01:47:12;;;;;;;;;;;;;;;24.26;52.11;95592.84;2066314;28;1081;-68
2022/06/19 01:48:16;;;;;;;;;;;;;;;24.25;51.96;95597.41;2066629;28;1196;-59
2022/06/19 01:49:17;;;;;;;;;;;;;;;24.25;52.19;95594.72;2066405;28;1105;-54
2022/06/19 01:50:28;;;;;;;;;;;;;;;24.23;52.38;95599.47;2066370;28;1148;-60
2022/06/19 01:51:30;;;;;;;;;;;;;;;24.22;52.11;95592.47;2066061;28;1412;-59
2022/06/19 01:52:34;;;;;;;;;;;;;;;24.22;52.15;95600.53;2057948;28;1502;-63
2022/06/19 01:53:38;;;;;;;;;;;;;;;24.22;52.08;95589.78;2061745;28;1383;-60
2022/06/19 01:54:44;;;;;;;;;;;;;;;24.22;52.08;95592.47;2066227;28;1152;-60
2022/06/19 01:55:46;;;;;;;;;;;;;;;24.22;52.04;95594.34;2065731;28;1983;-60
2022/06/19 01:56:53;;;;;;;;;;;;;;;24.22;52.36;95594.34;2066596;28;1101;-59
2022/06/19 01:57:56;;;;;;;;;;;;;;;24.19;52.17;95590.22;2066389;28;2001;-58
2022/06/19 01:59:03;;;;;;;;;;;;;;;24.19;52.09;95590.22;2064903;28;1472;-59
2022/06/19 02:00:07;;;;;;;;;;;;;;;24.18;52.17;95588.56;2066281;28;1940;-59
2022/06/19 02:01:10;;;;;;;;;;;;;;;24.18;52.25;95599.31;2065567;28;1958;-59
2022/06/19 02:02:13;;;;;;;;;;;;;;;24.19;52.60;95589.38;2058032;28;1973;-59
2022/06/19 02:03:19;;;;;;;;;;;;;;;24.17;52.55;95600.34;2058464;28;1165;-59
2022/06/19 02:04:23;;;;;;;;;;;;;;;24.17;52.54;95594.16;2049107;28;1171;-59
2022/06/19 02:05:26;;;;;;;;;;;;;;;24.17;52.32;95596.84;2058138;28;1287;-59
2022/06/19 02:06:30;;;;;;;;;;;;;;;24.17;52.47;95596.84;2058427;28;1153;-59
2022/06/19 02:07:32;;;;;;;;;;;;;;;24.17;52.57;95597.69;2058536;28;1293;-59
2022/06/19 02:08:35;;;;;;;;;;;;;;;24.16;52.50;95596.03;2058701;28;1969;-59
2022/06/19 02:09:38;;;;;;;;;;;;;;;24.17;52.34;95596.84;2066395;28;1150;-60
2022/06/19 02:10:40;;;;;;;;;;;;;;;24.17;52.37;95603.03;2066342;28;1847;-59
2022/06/19 02:11:44;;;;;;;;;;;;;;;24.17;52.65;95607.59;2066595;28;1067;-60
2022/06/19 02:12:47;;;;;;;;;;;;;;;24.19;53.69;95609.03;2066574;28;1069;-63
2022/06/19 02:13:50;;;;;;;;;;;;;;;24.21;52.64;95608.78;2065054;28;1428;-62
2022/06/19 02:14:52;;;;;;;;;;;;;;;24.20;52.66;95597.22;2064905;28;1147;-61
2022/06/19 02:15:55;;;;;;;;;;;;;;;24.21;52.53;95604.22;2058983;28;1434;-61
2022/06/19 02:16:59;;;;;;;;;;;;;;;24.21;52.60;95603.41;2065772;28;1906;-60
2022/06/19 02:18:03;;;;;;;;;;;;;;;24.20;52.76;95602.59;2066461;28;1025;-58
2022/06/19 02:19:05;;;;;;;;;;;;;;;24.19;52.78;95600.97;2066249;28;1161;-60
2022/06/19 02:20:08;;;;;;;;;;;;;;;24.21;52.57;95608.78;2066564;28;1081;-59
2022/06/19 02:21:13;;;;;;;;;;;;;;;24.19;52.63;95606.34;2066147;28;974;-60
2022/06/19 02:22:16;;;;;;;;;;;;;;;24.19;52.84;95606.34;2066462;28;1100;-60
2022/06/19 02:23:19;;;;;;;;;;;;;;;24.21;52.40;95604.22;2065811;28;1974;-59
2022/06/19 02:24:24;;;;;;;;;;;;;;;24.21;52.79;95606.09;2057952;28;1084;-60
2022/06/19 02:25:25;;;;;;;;;;;;;;;24.20;52.43;95605.28;2058406;28;1080;-61
2022/06/19 02:26:29;;;;;;;;;;;;;;;24.21;52.61;95606.91;2053982;28;1032;-58
2022/06/19 02:27:32;;;;;;;;;;;;;;;24.19;52.63;95603.66;2053307;28;1177;-60
2022/06/19 02:28:37;;;;;;;;;;;;;;;24.20;52.80;95607.97;2058469;28;1007;-60
2022/06/19 02:29:40;;;;;;;;;;;;;;;24.20;52.86;95613.34;2065973;28;1129;-61
2022/06/19 02:30:44;;;;;;;;;;;;;;;24.20;52.57;95612.53;2066176;28;1032;-60
2022/06/19 02:31:47;;;;;;;;;;;;;;;24.20;52.67;95610.66;2064657;28;1986;-62
2022/06/19 02:32:52;;;;;;;;;;;;;;;24.19;52.76;95611.72;2064104;28;1953;-60
2022/06/19 02:33:55;;;;;;;;;;;;;;;24.19;52.69;95614.41;2066034;28;1117;-59
2022/06/19 02:34:58;;;;;;;;;;;;;;;24.19;52.59;95610.88;2066427;28;1065;-59
2022/06/19 02:36:01;;;;;;;;;;;;;;;24.18;52.46;95615.41;2066076;28;1241;-60
2022/06/19 02:37:05;;;;;;;;;;;;;;;24.19;52.58;95613.53;2066109;28;1977;-58
2022/06/19 02:38:08;;;;;;;;;;;;;;;24.20;52.51;95613.34;2061550;28;1279;-60
2022/06/19 02:39:20;;;;;;;;;;;;;;;24.19;52.51;95610.88;2061216;28;1069;-60
2022/06/19 02:40:30;;;;;;;;;;;;;;;24.20;52.60;95610.66;2066202;28;1100;-60
2022/06/19 02:41:35;;;;;;;;;;;;;;;24.21;52.43;95614.16;2066003;28;1165;-59
2022/06/19 02:42:38;;;;;;;;;;;;;;;24.19;52.68;95619.75;2066284;28;1189;-60
2022/06/19 02:43:42;;;;;;;;;;;;;;;24.16;52.22;95612.16;2064769;28;1520;-59
2022/06/19 02:44:45;;;;;;;;;;;;;;;24.18;52.50;95619.97;2066273;28;1100;-60
2022/06/19 02:45:48;;;;;;;;;;;;;;;24.17;52.40;95619.16;2065686;28;989;-60
2022/06/19 02:46:50;;;;;;;;;;;;;;;24.17;52.39;95619.16;2066114;28;1096;-60
2022/06/19 02:47:54;;;;;;;;;;;;;;;24.18;52.47;95617.28;2062277;28;1931;-60
2022/06/19 02:48:55;;;;;;;;;;;;;;;24.17;52.35;95608.41;2056234;28;1121;-59
2022/06/19 02:49:58;;;;;;;;;;;;;;;24.16;52.69;95612.16;2051295;28;1132;-57
2022/06/19 02:51:02;;;;;;;;;;;;;;;24.16;52.42;95622.91;2057679;28;1273;-60
2022/06/19 02:52:04;;;;;;;;;;;;;;;24.17;52.29;95613.78;2063295;28;1593;-59
2022/06/19 02:53:07;;;;;;;;;;;;;;;24.17;52.80;95618.34;2065638;28;1022;-60
2022/06/19 02:54:09;;;;;;;;;;;;;;;24.16;52.62;95614.84;2066218;28;1214;-58
2022/06/19 02:55:12;;;;;;;;;;;;;;;24.19;52.48;95624.28;2066116;28;1172;-60
2022/06/19 02:56:14;;;;;;;;;;;;;;;24.15;49.98;95621.22;2066091;28;978;-58
2022/06/19 02:57:20;;;;;;;;;;;;;;;24.05;48.37;95620.88;2066098;28;1902;-60
2022/06/19 02:58:24;;;;;;;;;;;;;;;24.09;49.35;95619.41;2066021;28;1084;-60
2022/06/19 02:59:27;;;;;;;;;;;;;;;24.12;50.11;95625.13;2064551;28;2067;-61
2022/06/19 03:00:30;;;;;;;;;;;;;;;24.16;50.61;95630.94;2060726;28;1955;-60
2022/06/19 03:01:32;;;;;;;;;;;;;;;24.16;50.81;95622.03;2060952;28;1382;-60
2022/06/19 03:02:35;;;;;;;;;;;;;;;24.17;50.80;95624.53;2065906;28;1153;-60
2022/06/19 03:03:37;;;;;;;;;;;;;;;24.16;50.55;95627.41;2065740;28;1098;-60
2022/06/19 03:04:42;;;;;;;;;;;;;;;24.16;50.47;95632.78;2065955;28;1005;-60
2022/06/19 03:05:45;;;;;;;;;;;;;;;24.15;49.93;95625.78;2065921;28;1137;-60
2022/06/19 03:06:47;;;;;;;;;;;;;;;24.14;49.92;95624.97;2066037;28;1072;-62
2022/06/19 03:07:50;;;;;;;;;;;;;;;24.15;50.39;95628.47;2066038;28;1349;-60
2022/06/19 03:08:51;;;;;;;;;;;;;;;24.14;50.02;95627.66;2065693;28;947;-59
2022/06/19 03:09:54;;;;;;;;;;;;;;;24.14;49.61;95624.97;2066047;28;1007;-60
2022/06/19 03:10:57;;;;;;;;;;;;;;;24.14;49.89;95630.34;2065859;28;1121;-60
2022/06/19 03:11:59;;;;;;;;;;;;;;;24.14;49.84;95635.72;2061098;28;1102;-59
2022/06/19 03:13:02;;;;;;;;;;;;;;;24.13;49.19;95636.69;2060493;28;1621;-60
2022/06/19 03:14:04;;;;;;;;;;;;;;;24.13;49.80;95634.84;2065342;28;1108;-59
2022/06/19 03:15:09;;;;;;;;;;;;;;;24.13;49.20;95634.00;2068377;28;1679;-57
2022/06/19 03:16:11;;;;;;;;;;;;;;;24.13;50.05;95634.00;2068891;28;1230;-59
2022/06/19 03:17:15;;;;;;;;;;;;;;;24.13;49.47;95640.22;2074138;28;1902;-60
2022/06/19 03:18:17;;;;;;;;;;;;;;;24.13;49.56;95634.00;2074009;28;1032;-57
2022/06/19 03:19:20;;;;;;;;;;;;;;;24.13;49.51;95639.38;2066073;28;1937;-60
2022/06/19 03:20:24;;;;;;;;;;;;;;;24.13;49.50;95639.38;2057823;28;1165;-59
2022/06/19 03:21:27;;;;;;;;;;;;;;;24.12;49.48;95641.25;2057724;28;1089;-60
2022/06/19 03:22:29;;;;;;;;;;;;;;;24.12;49.54;95643.13;2057750;28;1106;-58
2022/06/19 03:23:32;;;;;;;;;;;;;;;24.15;50.17;95642.72;2052689;28;1172;-59
2022/06/19 03:24:34;;;;;;;;;;;;;;;24.14;49.76;95646.44;2053079;28;1321;-59
2022/06/19 03:25:41;;;;;;;;;;;;;;;24.12;49.04;95645.81;2057956;28;1101;-60
2022/06/19 03:26:43;;;;;;;;;;;;;;;24.11;49.04;95641.50;2057881;28;1002;-58
2022/06/19 03:27:46;;;;;;;;;;;;;;;24.11;49.03;95642.31;2068484;28;1608;-58
2022/06/19 03:28:47;;;;;;;;;;;;;;;24.10;48.68;95635.28;2068757;28;1086;-59
2022/06/19 03:29:50;;;;;;;;;;;;;;;24.10;49.00;95643.34;2070053;28;1261;-59
2022/06/19 03:30:53;;;;;;;;;;;;;;;24.10;48.63;95639.81;2068245;28;1965;-59
2022/06/19 03:31:57;;;;;;;;;;;;;;;24.09;48.86;95639.00;2070020;28;1978;-59
2022/06/19 03:32:58;;;;;;;;;;;;;;;24.11;49.21;95644.16;2070991;28;1288;-58
2022/06/19 03:34:01;;;;;;;;;;;;;;;24.10;49.25;95639.81;2073915;28;1149;-59
2022/06/19 03:35:04;;;;;;;;;;;;;;;24.10;48.70;95639.81;2067052;28;1048;-54
2022/06/19 03:36:07;;;;;;;;;;;;;;;24.10;48.64;95647.88;2071141;28;1442;-62
2022/06/19 03:37:09;;;;;;;;;;;;;;;24.10;49.29;95645.19;2066067;28;1085;-60
2022/06/19 03:38:11;;;;;;;;;;;;;;;24.10;48.56;95642.50;2065349;28;1908;-61
2022/06/19 03:39:14;;;;;;;;;;;;;;;24.11;49.02;95644.16;2066105;28;1379;-59
2022/06/19 03:40:16;;;;;;;;;;;;;;;24.10;48.74;95647.88;2066024;28;1034;-59
2022/06/19 03:41:19;;;;;;;;;;;;;;;24.10;49.26;95651.41;2066103;28;1084;-59
2022/06/19 03:42:20;;;;;;;;;;;;;;;24.08;49.10;95641.94;2065818;28;1057;-59
2022/06/19 03:43:23;;;;;;;;;;;;;;;24.10;48.69;95642.50;2064193;28;1563;-59
2022/06/19 03:44:25;;;;;;;;;;;;;;;24.10;49.20;95645.19;2065904;28;1005;-58
2022/06/19 03:45:28;;;;;;;;;;;;;;;24.10;49.00;95640.66;2064730;28;1985;-60
2022/06/19 03:46:32;;;;;;;;;;;;;;;24.09;48.95;95643.56;2057110;28;1991;-56
2022/06/19 03:47:34;;;;;;;;;;;;;;;24.08;48.85;95640.06;2065406;28;1007;-58
2022/06/19 03:48:36;;;;;;;;;;;;;;;24.10;49.01;95646.03;2065429;28;1980;-60
2022/06/19 03:49:39;;;;;;;;;;;;;;;24.10;49.32;95642.50;2065768;28;1077;-59
2022/06/19 03:50:41;;;;;;;;;;;;;;;24.10;48.77;95639.81;2064970;28;1020;-60
2022/06/19 03:51:44;;;;;;;;;;;;;;;24.09;48.96;95646.25;2065324;28;1093;-59
2022/06/19 03:52:47;;;;;;;;;;;;;;;24.09;48.92;95640.88;2064642;28;1883;-59
2022/06/19 03:53:50;;;;;;;;;;;;;;;24.09;48.76;95640.88;2065386;28;1110;-59
2022/06/19 03:54:52;;;;;;;;;;;;;;;24.10;48.86;95637.13;2065559;28;1085;-60
2022/06/19 03:55:54;;;;;;;;;;;;;;;24.10;49.10;95639.81;2065496;28;1080;-59
2022/06/19 03:56:57;;;;;;;;;;;;;;;24.10;48.93;95634.44;2065362;28;1145;-60
2022/06/19 03:57:59;;;;;;;;;;;;;;;24.08;49.01;95637.38;2052593;28;1907;-59
2022/06/19 03:59:02;;;;;;;;;;;;;;;24.10;48.71;95639.81;2057376;28;1906;-60
2022/06/19 04:00:04;;;;;;;;;;;;;;;24.10;49.03;95637.13;2056900;28;1911;-58
2022/06/19 04:01:07;;;;;;;;;;;;;;;24.09;48.94;95635.50;2057264;28;1895;-60
2022/06/19 04:02:10;;;;;;;;;;;;;;;24.09;48.90;95633.63;2057125;28;2096;-59
2022/06/19 04:03:13;;;;;;;;;;;;;;;24.08;48.83;95636.56;2057187;28;1054;-59
2022/06/19 04:04:15;;;;;;;;;;;;;;;24.08;48.85;95631.19;2056865;28;943;-60
2022/06/19 04:05:18;;;;;;;;;;;;;;;24.07;48.74;95635.75;2057266;28;982;-57
2022/06/19 04:06:21;;;;;;;;;;;;;;;24.08;48.67;95637.38;2061062;28;1458;-59
2022/06/19 04:07:24;;;;;;;;;;;;;;;24.08;48.56;95639.25;2065090;28;1088;-60
2022/06/19 04:08:26;;;;;;;;;;;;;;;24.08;48.45;95633.88;2063636;28;1069;-59
2022/06/19 04:09:29;;;;;;;;;;;;;;;24.08;48.87;95631.19;2058943;28;1008;-60
2022/06/19 04:10:31;;;;;;;;;;;;;;;24.07;48.31;95635.75;2065058;28;1156;-60
2022/06/19 04:11:34;;;;;;;;;;;;;;;24.06;48.37;95639.44;2064636;28;1982;-59
2022/06/19 04:12:35;;;;;;;;;;;;;;;24.06;48.05;95635.94;2064523;28;1833;-59
2022/06/19 04:13:38;;;;;;;;;;;;;;;24.05;48.17;95637.81;2064825;28;1094;-57
2022/06/19 04:14:40;;;;;;;;;;;;;;;24.06;48.33;95644.81;2064971;28;1022;-59
2022/06/19 04:15:43;;;;;;;;;;;;;;;24.07;48.23;95640.25;2064943;28;1820;-58
2022/06/19 04:16:45;;;;;;;;;;;;;;;24.06;48.44;95638.63;2065454;28;1097;-59
2022/06/19 04:17:49;;;;;;;;;;;;;;;24.06;48.25;95638.63;2065194;28;1088;-65
2022/06/19 04:18:52;;;;;;;;;;;;;;;24.05;48.15;95637.81;2065188;28;1966;-60
2022/06/19 04:19:57;;;;;;;;;;;;;;;24.06;48.40;95644.81;2061151;28;1140;-60
2022/06/19 04:20:59;;;;;;;;;;;;;;;24.05;47.89;95639.69;2057468;28;1983;-58
2022/06/19 04:22:04;;;;;;;;;;;;;;;24.06;48.40;95638.63;2056875;28;1093;-59
2022/06/19 04:23:06;;;;;;;;;;;;;;;24.06;48.29;95641.31;2057101;28;1057;-59
2022/06/19 04:24:11;;;;;;;;;;;;;;;24.06;48.32;95641.31;2057184;28;1176;-59
2022/06/19 04:25:13;;;;;;;;;;;;;;;24.05;48.27;95639.69;2057289;28;1037;-60
2022/06/19 04:26:17;;;;;;;;;;;;;;;24.06;48.32;95638.63;2057114;28;1121;-60
2022/06/19 04:27:19;;;;;;;;;;;;;;;24.04;48.23;95643.38;2057403;28;1552;-59
2022/06/19 04:28:24;;;;;;;;;;;;;;;24.04;48.06;95635.34;2064558;28;1281;-60
2022/06/19 04:29:27;;;;;;;;;;;;;;;24.04;48.14;95641.50;2064898;28;1163;-60
2022/06/19 04:30:30;;;;;;;;;;;;;;;24.05;48.63;95640.50;2065360;28;1009;-59
2022/06/19 04:31:32;;;;;;;;;;;;;;;24.03;48.15;95642.56;2060818;28;1152;-60
2022/06/19 04:32:35;;;;;;;;;;;;;;;24.05;48.41;95637.81;2060433;28;1085;-59
2022/06/19 04:33:39;;;;;;;;;;;;;;;24.05;48.57;95637.00;2065220;28;1180;-67
2022/06/19 04:34:41;;;;;;;;;;;;;;;24.04;47.98;95636.16;2065225;28;1101;-59
2022/06/19 04:35:43;;;;;;;;;;;;;;;24.03;47.91;95636.38;2064671;28;1910;-58
2022/06/19 04:36:46;;;;;;;;;;;;;;;24.04;47.94;95638.00;2065143;28;1009;-58
2022/06/19 04:37:48;;;;;;;;;;;;;;;24.03;47.57;95641.75;2065369;28;1005;-59
2022/06/19 04:38:54;;;;;;;;;;;;;;;24.03;48.07;95634.50;2065237;28;2000;-59
2022/06/19 04:39:55;;;;;;;;;;;;;;;24.02;47.97;95637.44;2064719;28;1888;-58
2022/06/19 04:40:58;;;;;;;;;;;;;;;24.04;48.25;95640.69;2065391;28;1073;-56
2022/06/19 04:42:00;;;;;;;;;;;;;;;24.03;47.91;95639.06;2064662;28;1573;-57
2022/06/19 04:43:03;;;;;;;;;;;;;;;24.04;47.80;95646.06;2053289;28;1432;-58
2022/06/19 04:44:06;;;;;;;;;;;;;;;24.04;47.96;95646.06;2052581;28;1337;-58
2022/06/19 04:45:10;;;;;;;;;;;;;;;24.04;48.17;95643.38;2057228;28;1074;-60
2022/06/19 04:46:12;;;;;;;;;;;;;;;24.04;48.09;95646.06;2057233;28;1081;-58
2022/06/19 04:47:14;;;;;;;;;;;;;;;24.03;48.11;95647.13;2057048;28;1048;-58
2022/06/19 04:48:17;;;;;;;;;;;;;;;24.03;48.42;95642.56;2057258;28;1616;-58
2022/06/19 04:49:22;;;;;;;;;;;;;;;24.03;48.03;95649.81;2057144;28;1164;-58
2022/06/19 04:50:24;;;;;;;;;;;;;;;24.03;48.13;95644.44;2057260;28;1172;-58
2022/06/19 04:51:26;;;;;;;;;;;;;;;24.02;47.73;95642.81;2057219;28;1074;-58
2022/06/19 04:52:28;;;;;;;;;;;;;;;24.03;48.45;95645.25;2057179;28;1061;-58
2022/06/19 04:53:32;;;;;;;;;;;;;;;24.04;48.36;95638.00;2057071;28;1077;-57
2022/06/19 04:54:34;;;;;;;;;;;;;;;24.02;47.83;95637.44;2049748;28;1870;-54
2022/06/19 04:55:37;;;;;;;;;;;;;;;24.02;47.94;95646.31;2063861;28;1903;-58
2022/06/19 04:56:39;;;;;;;;;;;;;;;24.03;48.08;95644.44;2064638;28;1939;-58
2022/06/19 04:57:41;;;;;;;;;;;;;;;24.04;48.04;95641.50;2058385;28;1614;-58
2022/06/19 04:58:43;;;;;;;;;;;;;;;24.04;48.18;95646.06;2057195;28;1910;-58
2022/06/19 04:59:46;;;;;;;;;;;;;;;24.05;48.40;95653.09;2057042;28;1040;-58
2022/06/19 05:00:48;;;;;;;;;;;;;;;24.05;48.31;95653.09;2061735;28;1562;-56
2022/06/19 05:01:51;;;;;;;;;;;;;;;24.04;48.09;95654.94;2065168;28;1113;-58
2022/06/19 05:02:53;;;;;;;;;;;;;;;24.05;48.60;95653.09;2065208;28;931;-57
2022/06/19 05:03:58;;;;;;;;;;;;;;;24.04;48.79;95657.63;2065059;28;1152;-58
2022/06/19 05:05:01;;;;;;;;;;;;;;;24.04;48.57;95652.25;2065135;28;2058;-58
2022/06/19 05:06:04;;;;;;;;;;;;;;;24.03;48.30;95656.00;2056109;28;1001;-56
2022/06/19 05:07:07;;;;;;;;;;;;;;;24.04;48.77;95651.44;2064489;28;1205;-56
2022/06/19 05:08:10;;;;;;;;;;;;;;;24.04;48.73;95656.81;2065119;28;1093;-58
2022/06/19 05:09:13;;;;;;;;;;;;;;;24.05;48.43;95655.78;2064001;28;1395;-59
2022/06/19 05:10:15;;;;;;;;;;;;;;;24.04;48.37;95662.19;2064588;28;1925;-59
2022/06/19 05:11:18;;;;;;;;;;;;;;;24.03;48.19;95658.66;2065257;28;1080;-59
2022/06/19 05:12:20;;;;;;;;;;;;;;;24.02;47.89;95653.53;2061161;28;1506;-59
2022/06/19 05:13:25;;;;;;;;;;;;;;;24.03;48.42;95657.84;2056899;28;1118;-59
2022/06/19 05:14:27;;;;;;;;;;;;;;;24.03;48.08;95658.66;2056901;28;1093;-59
2022/06/19 05:15:29;;;;;;;;;;;;;;;24.05;48.36;95661.16;2057172;28;902;-59
2022/06/19 05:16:32;;;;;;;;;;;;;;;24.04;48.41;95659.50;2057615;28;1039;-53
2022/06/19 05:17:35;;;;;;;;;;;;;;;24.03;48.61;95661.34;2050964;28;1401;-58
2022/06/19 05:18:38;;;;;;;;;;;;;;;24.04;48.21;95659.50;2058593;28;1117;-59
2022/06/19 05:19:40;;;;;;;;;;;;;;;24.04;48.60;95656.81;2058535;28;1985;-60
2022/06/19 05:20:44;;;;;;;;;;;;;;;24.03;48.57;95660.53;2058521;28;1010;-59
2022/06/19 05:21:47;;;;;;;;;;;;;;;24.03;48.33;95658.66;2058254;28;1092;-60
2022/06/19 05:22:49;;;;;;;;;;;;;;;24.03;48.30;95663.22;2058630;28;1024;-60
2022/06/19 05:23:52;;;;;;;;;;;;;;;24.02;48.40;95659.72;2058273;28;1188;-59
2022/06/19 05:24:54;;;;;;;;;;;;;;;24.04;48.43;95663.00;2061581;28;1913;-58
2022/06/19 05:26:01;;;;;;;;;;;;;;;24.06;48.58;95666.28;2066480;28;1271;-60
2022/06/19 05:27:04;;;;;;;;;;;;;;;24.08;48.35;95664.22;2064935;28;1534;-59
2022/06/19 05:28:07;;;;;;;;;;;;;;;24.08;48.53;95666.91;2062048;28;1208;-57
2022/06/19 05:29:10;;;;;;;;;;;;;;;24.09;48.24;95665.84;2061539;28;1228;-59
2022/06/19 05:30:13;;;;;;;;;;;;;;;24.09;48.22;95659.66;2066572;28;1124;-60
2022/06/19 05:31:16;;;;;;;;;;;;;;;24.09;48.33;95662.34;2066829;28;1040;-59
2022/06/19 05:32:18;;;;;;;;;;;;;;;24.09;48.19;95665.03;2066447;28;1044;-63
2022/06/19 05:33:22;;;;;;;;;;;;;;;23.92;45.46;95664.75;2066583;28;1093;-59
2022/06/19 05:34:23;;;;;;;;;;;;;;;23.65;44.37;95664.91;2066440;28;1196;-61
2022/06/19 05:35:26;;;;;;;;;;;;;;;23.45;44.14;95664.22;2066389;28;1389;-59